Time;durP1;ratioP1;P1;durP2;ratioP2;P2;SDS_P1;SDS_P2;PMS_P1;PMS_P2;Temp;Humidity;BMP_temperature;BMP_pressure;BME280_temperature;BME280_humidity;BME280_pressure;Samples;Min_cycle;Max_cycle;Signal;HPM_P1;HPM_P2
2022/09/02 00:01:10;;;;;;;7.10;5.00;;;;;;;;;;753851;182;919181;-53
2022/09/02 00:03:36;;;;;;;7.10;5.27;;;;;;;;;;748773;184;919812;-54
2022/09/02 00:06:02;;;;;;;7.47;4.97;;;;;;;;;;758008;184;814692;-53
2022/09/02 00:08:28;;;;;;;6.80;4.70;;;;;;;;;;755889;184;919671;-53
2022/09/02 00:10:53;;;;;;;10.00;4.87;;;;;;;;;;750715;184;922087;-53
2022/09/02 00:13:19;;;;;;;7.80;5.60;;;;;;;;;;752918;184;916849;-54
2022/09/02 00:15:45;;;;;;;8.38;5.37;;;;;;;;;;760295;184;921779;-53
2022/09/02 00:18:11;;;;;;;12.10;5.17;;;;;;;;;;750783;184;922829;-53
2022/09/02 00:20:37;;;;;;;7.80;5.43;;;;;;;;;;754084;184;921324;-54
2022/09/02 00:23:03;;;;;;;6.50;5.50;;;;;;;;;;753957;185;919321;-54
2022/09/02 00:25:28;;;;;;;7.97;5.53;;;;;;;;;;750144;185;920097;-53
2022/09/02 00:27:54;;;;;;;6.20;5.30;;;;;;;;;;755487;184;915099;-53
2022/09/02 00:30:20;;;;;;;7.90;5.53;;;;;;;;;;750575;185;919932;-54
2022/09/02 00:32:46;;;;;;;7.27;5.00;;;;;;;;;;752876;184;918932;-53
2022/09/02 00:35:12;;;;;;;12.07;5.50;;;;;;;;;;757571;183;917295;-53
2022/09/02 00:37:38;;;;;;;12.50;6.43;;;;;;;;;;755772;184;816690;-53
2022/09/02 00:40:04;;;;;;;10.80;5.80;;;;;;;;;;758378;184;916860;-53
2022/09/02 00:42:30;;;;;;;10.40;5.27;;;;;;;;;;749066;184;919154;-53
2022/09/02 00:44:56;;;;;;;8.43;6.10;;;;;;;;;;754088;184;619278;-53
2022/09/02 00:47:22;;;;;;;8.93;6.07;;;;;;;;;;764109;184;626855;-54
2022/09/02 00:49:47;;;;;;;7.83;6.20;;;;;;;;;;760630;184;634333;-53
2022/09/02 00:52:13;;;;;;;8.77;5.70;;;;;;;;;;751413;186;919588;-52
2022/09/02 00:54:39;;;;;;;12.63;7.43;;;;;;;;;;755318;185;919175;-53
2022/09/02 00:57:05;;;;;;;12.73;5.82;;;;;;;;;;750295;181;920346;-53
2022/09/02 00:59:46;;;;;;;8.73;6.87;;;;;;;;;;754802;184;917910;-53
2022/09/02 01:02:12;;;;;;;10.23;6.87;;;;;;;;;;758540;183;920704;-54
2022/09/02 01:04:37;;;;;;;8.77;7.43;;;;;;;;;;759794;184;919585;-54
2022/09/02 01:07:04;;;;;;;12.00;7.10;;;;;;;;;;747704;185;920257;-53
2022/09/02 01:09:32;;;;;;;8.77;6.60;;;;;;;;;;749763;184;923935;-54
2022/09/02 01:11:55;;;;;;;10.77;7.33;;;;;;;;;;751601;185;921169;-54
2022/09/02 01:14:21;;;;;;;11.60;7.47;;;;;;;;;;754326;183;920502;-54
2022/09/02 01:16:46;;;;;;;11.70;7.50;;;;;;;;;;750120;185;918536;-54
2022/09/02 01:19:15;;;;;;;13.60;9.50;;;;;;;;;;756966;184;892827;-54
2022/09/02 01:21:41;;;;;;;13.90;9.07;;;;;;;;;;758916;185;895749;-54
2022/09/02 01:24:07;;;;;;;8.90;6.57;;;;;;;;;;746521;186;919671;-54
2022/09/02 01:26:33;;;;;;;11.20;7.13;;;;;;;;;;749322;182;856839;-54
2022/09/02 01:28:59;;;;;;;12.13;7.40;;;;;;;;;;754662;182;918374;-54
2022/09/02 01:31:25;;;;;;;11.33;6.67;;;;;;;;;;752153;185;923797;-54
2022/09/02 01:33:51;;;;;;;9.67;8.20;;;;;;;;;;756209;184;920184;-54
2022/09/02 01:36:16;;;;;;;8.38;6.82;;;;;;;;;;753239;184;919567;-54
2022/09/02 01:38:42;;;;;;;15.37;7.03;;;;;;;;;;759683;184;921982;-54
2022/09/02 01:41:08;;;;;;;8.37;6.87;;;;;;;;;;754454;185;916921;-53
2022/09/02 01:43:34;;;;;;;12.13;7.87;;;;;;;;;;751934;183;919350;-53
2022/09/02 01:46:00;;;;;;;10.97;7.13;;;;;;;;;;759384;184;915856;-53
2022/09/02 01:48:26;;;;;;;9.37;7.50;;;;;;;;;;755292;181;915836;-53
2022/09/02 01:50:54;;;;;;;11.40;9.13;;;;;;;;;;754575;181;943577;-53
2022/09/02 01:53:20;;;;;;;11.20;7.73;;;;;;;;;;758078;184;922427;-54
2022/09/02 01:55:46;;;;;;;10.87;7.50;;;;;;;;;;771273;181;921505;-54
2022/09/02 01:58:12;;;;;;;10.82;8.00;;;;;;;;;;758571;184;920019;-53
2022/09/02 02:00:39;;;;;;;10.87;8.07;;;;;;;;;;754323;184;916938;-54
2022/09/02 02:03:05;;;;;;;13.57;9.80;;;;;;;;;;759102;184;817566;-53
2022/09/02 02:05:31;;;;;;;12.47;9.33;;;;;;;;;;753473;185;918632;-53
2022/09/02 02:07:57;;;;;;;11.98;10.18;;;;;;;;;;749676;185;916344;-54
2022/09/02 02:10:23;;;;;;;13.53;9.50;;;;;;;;;;754292;185;918013;-53
2022/09/02 02:12:48;;;;;;;12.17;8.50;;;;;;;;;;750828;185;923784;-53
2022/09/02 02:15:14;;;;;;;12.53;9.10;;;;;;;;;;753624;183;925734;-54
2022/09/02 02:17:40;;;;;;;15.80;10.00;;;;;;;;;;755620;180;920804;-54
2022/09/02 02:20:07;;;;;;;13.77;9.38;;;;;;;;;;764744;182;918980;-54
2022/09/02 02:22:32;;;;;;;11.37;9.20;;;;;;;;;;753285;181;915704;-54
2022/09/02 02:24:58;;;;;;;12.47;9.20;;;;;;;;;;750449;185;821934;-54
2022/09/02 02:27:24;;;;;;;12.87;8.60;;;;;;;;;;753420;185;919474;-54
2022/09/02 02:29:51;;;;;;;17.50;10.27;;;;;;;;;;753958;183;919868;-53
2022/09/02 02:32:18;;;;;;;11.60;9.00;;;;;;;;;;751327;185;818117;-53
2022/09/02 02:34:43;;;;;;;13.37;9.20;;;;;;;;;;759952;184;816761;-53
2022/09/02 02:37:11;;;;;;;13.47;9.23;;;;;;;;;;752626;182;818592;-54
2022/09/02 02:39:35;;;;;;;12.13;8.53;;;;;;;;;;753076;181;919851;-53
2022/09/02 02:42:01;;;;;;;17.57;10.13;;;;;;;;;;756573;182;818974;-54
2022/09/02 02:44:28;;;;;;;12.77;9.57;;;;;;;;;;756464;184;817136;-53
2022/09/02 02:46:53;;;;;;;13.45;9.07;;;;;;;;;;749002;185;827935;-54
2022/09/02 02:49:18;;;;;;;11.03;8.17;;;;;;;;;;754191;183;919514;-53
2022/09/02 02:51:44;;;;;;;11.43;9.23;;;;;;;;;;752194;185;876110;-54
2022/09/02 02:54:13;;;;;;;15.57;10.20;;;;;;;;;;755039;184;921579;-54
2022/09/02 02:56:36;;;;;;;13.67;9.40;;;;;;;;;;747526;185;917191;-53
2022/09/02 02:59:02;;;;;;;17.00;9.07;;;;;;;;;;763351;184;919725;-54
2022/09/02 03:01:28;;;;;;;16.63;10.30;;;;;;;;;;755605;183;919983;-53
2022/09/02 03:03:54;;;;;;;14.63;9.20;;;;;;;;;;755896;184;919811;-54
2022/09/02 03:06:19;;;;;;;16.87;11.60;;;;;;;;;;758846;184;915512;-54
2022/09/02 03:08:47;;;;;;;17.87;10.33;;;;;;;;;;751099;184;938500;-54
2022/09/02 03:11:12;;;;;;;17.70;11.03;;;;;;;;;;751665;184;883167;-55
2022/09/02 03:13:37;;;;;;;15.33;10.53;;;;;;;;;;752515;183;818999;-54
2022/09/02 03:16:03;;;;;;;12.77;10.77;;;;;;;;;;760162;184;918958;-54
2022/09/02 03:18:29;;;;;;;20.70;11.60;;;;;;;;;;757080;183;920735;-54
2022/09/02 03:20:55;;;;;;;14.97;11.00;;;;;;;;;;749078;185;920004;-54
2022/09/02 03:23:20;;;;;;;13.67;10.03;;;;;;;;;;758864;184;919153;-53
2022/09/02 03:25:46;;;;;;;13.30;9.97;;;;;;;;;;753897;184;912850;-54
2022/09/02 03:28:12;;;;;;;17.60;10.57;;;;;;;;;;753716;184;847447;-53
2022/09/02 03:30:38;;;;;;;15.37;11.10;;;;;;;;;;760843;184;917345;-53
2022/09/02 03:33:05;;;;;;;17.48;10.80;;;;;;;;;;752896;185;850004;-54
2022/09/02 03:35:31;;;;;;;13.73;10.23;;;;;;;;;;749864;184;918027;-53
2022/09/02 03:37:56;;;;;;;15.23;12.25;;;;;;;;;;747819;184;920976;-55
2022/09/02 03:40:22;;;;;;;14.07;11.30;;;;;;;;;;754500;185;919357;-54
2022/09/02 03:42:48;;;;;;;15.93;10.83;;;;;;;;;;754291;184;920439;-54
2022/09/02 03:45:14;;;;;;;16.67;11.43;;;;;;;;;;748651;185;919383;-54
2022/09/02 03:47:44;;;;;;;12.80;10.70;;;;;;;;;;757506;184;916436;-54
2022/09/02 03:50:06;;;;;;;14.43;12.02;;;;;;;;;;753784;184;919727;-53
2022/09/02 03:52:32;;;;;;;17.60;13.07;;;;;;;;;;752395;184;914476;-54
2022/09/02 03:54:57;;;;;;;21.30;12.10;;;;;;;;;;755415;184;791965;-53
2022/09/02 03:57:25;;;;;;;19.40;13.13;;;;;;;;;;754844;184;920062;-54
2022/09/02 03:59:49;;;;;;;18.10;12.73;;;;;;;;;;749271;181;849106;-54
2022/09/02 04:02:15;;;;;;;17.30;12.23;;;;;;;;;;752384;184;919664;-54
2022/09/02 04:04:41;;;;;;;18.43;13.10;;;;;;;;;;766303;181;817618;-54
2022/09/02 04:07:07;;;;;;;19.50;13.13;;;;;;;;;;756481;184;918824;-53
2022/09/02 04:09:33;;;;;;;20.00;14.70;;;;;;;;;;755019;183;919486;-54
2022/09/02 04:11:58;;;;;;;18.00;13.00;;;;;;;;;;755643;184;919117;-54
2022/09/02 04:14:26;;;;;;;17.00;12.60;;;;;;;;;;756623;184;919291;-53
2022/09/02 04:16:50;;;;;;;16.03;12.90;;;;;;;;;;754549;182;920430;-53
2022/09/02 04:19:16;;;;;;;20.33;12.50;;;;;;;;;;759406;184;920979;-55
2022/09/02 04:21:42;;;;;;;18.90;14.50;;;;;;;;;;752465;184;920074;-54
2022/09/02 04:24:08;;;;;;;19.43;13.13;;;;;;;;;;755142;184;919172;-54
2022/09/02 04:26:34;;;;;;;18.50;13.53;;;;;;;;;;759562;182;919682;-54
2022/09/02 04:28:59;;;;;;;22.73;13.93;;;;;;;;;;756817;184;919091;-54
2022/09/02 04:31:27;;;;;;;16.57;12.73;;;;;;;;;;754191;181;914520;-54
2022/09/02 04:33:51;;;;;;;22.23;14.50;;;;;;;;;;749047;185;919607;-54
2022/09/02 04:36:17;;;;;;;19.10;14.33;;;;;;;;;;757192;184;919586;-53
2022/09/02 04:38:43;;;;;;;19.20;13.57;;;;;;;;;;753648;182;942165;-53
2022/09/02 04:41:09;;;;;;;20.83;14.23;;;;;;;;;;751703;183;919298;-53
2022/09/02 04:43:34;;;;;;;18.93;14.90;;;;;;;;;;754928;185;917976;-53
2022/09/02 04:46:00;;;;;;;25.33;15.93;;;;;;;;;;755268;184;919659;-53
2022/09/02 04:48:26;;;;;;;19.07;15.97;;;;;;;;;;749536;185;920474;-54
2022/09/02 04:50:52;;;;;;;22.10;15.67;;;;;;;;;;762745;184;624608;-53
2022/09/02 04:53:18;;;;;;;25.67;17.40;;;;;;;;;;751921;183;918813;-54
2022/09/02 04:55:44;;;;;;;19.48;16.10;;;;;;;;;;749038;185;716519;-53
2022/09/02 04:58:09;;;;;;;22.13;16.43;;;;;;;;;;756420;182;810908;-53
2022/09/02 05:00:36;;;;;;;26.63;15.50;;;;;;;;;;752081;183;844724;-53
2022/09/02 05:03:03;;;;;;;20.00;14.10;;;;;;;;;;749574;185;916619;-54
2022/09/02 05:05:28;;;;;;;22.13;15.27;;;;;;;;;;754800;184;918886;-54
2022/09/02 05:07:54;;;;;;;32.00;18.90;;;;;;;;;;756241;185;850293;-53
2022/09/02 05:10:20;;;;;;;27.27;19.60;;;;;;;;;;755373;184;919545;-53
2022/09/02 05:12:45;;;;;;;32.67;17.83;;;;;;;;;;750373;181;919977;-54
2022/09/02 05:15:11;;;;;;;26.70;17.60;;;;;;;;;;758987;184;920174;-54
2022/09/02 05:17:37;;;;;;;24.70;17.87;;;;;;;;;;752151;183;919515;-54
2022/09/02 05:20:04;;;;;;;31.50;21.03;;;;;;;;;;758696;182;919005;-54
2022/09/02 05:22:29;;;;;;;24.33;19.03;;;;;;;;;;757085;183;921741;-54
2022/09/02 05:24:55;;;;;;;25.17;17.77;;;;;;;;;;753873;184;921536;-53
2022/09/02 05:27:22;;;;;;;23.80;16.57;;;;;;;;;;755453;182;828585;-53
2022/09/02 05:29:47;;;;;;;19.67;16.50;;;;;;;;;;748550;184;919458;-53
2022/09/02 05:32:13;;;;;;;20.13;15.57;;;;;;;;;;761576;184;916871;-53
2022/09/02 05:34:38;;;;;;;21.80;15.70;;;;;;;;;;754987;184;918796;-54
2022/09/02 05:37:04;;;;;;;21.07;13.47;;;;;;;;;;756528;184;918172;-54
2022/09/02 05:39:30;;;;;;;17.37;13.10;;;;;;;;;;755132;184;918795;-53
2022/09/02 05:41:56;;;;;;;20.10;13.30;;;;;;;;;;736801;187;919313;-53
2022/09/02 05:44:22;;;;;;;22.17;12.23;;;;;;;;;;749382;186;921262;-54
2022/09/02 05:46:48;;;;;;;18.53;13.10;;;;;;;;;;754026;185;919453;-54
2022/09/02 05:49:17;;;;;;;24.90;15.57;;;;;;;;;;749473;185;919958;-53
2022/09/02 05:51:44;;;;;;;18.73;13.70;;;;;;;;;;755985;184;918137;-53
2022/09/02 05:54:10;;;;;;;17.03;12.50;;;;;;;;;;748433;185;938868;-54
2022/09/02 05:56:37;;;;;;;18.20;12.77;;;;;;;;;;759575;184;920213;-53
2022/09/02 05:59:03;;;;;;;17.37;11.50;;;;;;;;;;751551;185;910667;-54
2022/09/02 06:01:29;;;;;;;17.92;13.30;;;;;;;;;;750398;182;922527;-53
2022/09/02 06:03:56;;;;;;;13.53;10.53;;;;;;;;;;758947;184;921741;-54
2022/09/02 06:06:22;;;;;;;17.57;12.10;;;;;;;;;;754525;184;918763;-54
2022/09/02 06:08:46;;;;;;;20.00;10.97;;;;;;;;;;751629;184;920498;-53
2022/09/02 06:11:12;;;;;;;16.23;11.80;;;;;;;;;;754035;184;919278;-55
2022/09/02 06:13:38;;;;;;;15.13;10.98;;;;;;;;;;754473;185;920367;-54
2022/09/02 06:16:05;;;;;;;12.80;8.63;;;;;;;;;;747956;184;919893;-53
2022/09/02 06:18:30;;;;;;;14.63;9.77;;;;;;;;;;753066;184;920166;-54
2022/09/02 06:20:55;;;;;;;15.23;9.50;;;;;;;;;;755117;185;920538;-54
2022/09/02 06:23:21;;;;;;;13.17;8.93;;;;;;;;;;755742;184;921610;-53
2022/09/02 06:25:47;;;;;;;17.40;9.27;;;;;;;;;;755789;184;895031;-54
2022/09/02 06:28:13;;;;;;;15.73;9.10;;;;;;;;;;756634;184;918925;-54
2022/09/02 06:30:39;;;;;;;14.07;8.77;;;;;;;;;;753302;185;919755;-54
2022/09/02 06:33:05;;;;;;;13.93;8.27;;;;;;;;;;753797;183;924664;-58
2022/09/02 06:35:31;;;;;;;10.90;7.60;;;;;;;;;;757115;181;919295;-55
2022/09/02 06:37:57;;;;;;;13.33;8.50;;;;;;;;;;759803;183;826554;-54
2022/09/02 06:40:23;;;;;;;14.60;8.60;;;;;;;;;;752413;181;920452;-54
2022/09/02 06:42:49;;;;;;;12.50;7.87;;;;;;;;;;752462;182;913368;-54
2022/09/02 06:45:15;;;;;;;11.17;7.37;;;;;;;;;;752779;184;919107;-55
2022/09/02 06:47:41;;;;;;;12.73;7.83;;;;;;;;;;751195;182;919432;-55
2022/09/02 06:50:07;;;;;;;10.60;6.93;;;;;;;;;;756793;184;920205;-54
2022/09/02 06:52:33;;;;;;;23.30;8.00;;;;;;;;;;757902;183;920491;-55
2022/09/02 06:54:59;;;;;;;9.23;5.68;;;;;;;;;;756109;184;917311;-55
2022/09/02 06:57:25;;;;;;;8.43;6.93;;;;;;;;;;753762;184;919437;-54
2022/09/02 06:59:50;;;;;;;8.97;6.30;;;;;;;;;;751428;185;919606;-55
2022/09/02 07:02:16;;;;;;;10.17;5.83;;;;;;;;;;749418;185;921155;-54
2022/09/02 07:07:14;;;;;;;11.40;6.00;;;;;;;;;;756782;184;918096;-55
2022/09/02 07:09:39;;;;;;;11.67;7.10;;;;;;;;;;760841;184;817782;-54
2022/09/02 07:12:05;;;;;;;7.82;6.00;;;;;;;;;;753154;183;816645;-54
2022/09/02 07:14:31;;;;;;;12.80;5.77;;;;;;;;;;748719;184;931628;-54
2022/09/02 07:16:58;;;;;;;7.73;5.17;;;;;;;;;;757632;181;910230;-55
2022/09/02 07:19:24;;;;;;;10.90;5.10;;;;;;;;;;762089;181;917781;-53
2022/09/02 07:21:49;;;;;;;9.33;6.13;;;;;;;;;;753483;185;618536;-54
2022/09/02 07:24:15;;;;;;;11.73;6.90;;;;;;;;;;750019;184;913115;-54
2022/09/02 07:26:41;;;;;;;9.83;5.73;;;;;;;;;;760403;182;711905;-54
2022/09/02 07:29:07;;;;;;;10.60;6.32;;;;;;;;;;754116;184;918326;-56
2022/09/02 07:31:33;;;;;;;9.03;6.13;;;;;;;;;;754321;184;918671;-54
2022/09/02 07:33:59;;;;;;;9.63;5.40;;;;;;;;;;760500;183;918527;-54
2022/09/02 07:36:24;;;;;;;8.23;6.85;;;;;;;;;;751818;185;860962;-55
2022/09/02 07:38:50;;;;;;;11.07;5.83;;;;;;;;;;754373;184;936832;-55
2022/09/02 07:41:16;;;;;;;9.00;5.20;;;;;;;;;;757796;184;919623;-55
2022/09/02 07:43:42;;;;;;;7.07;5.40;;;;;;;;;;751323;184;919889;-54
2022/09/02 07:46:08;;;;;;;7.77;5.30;;;;;;;;;;758608;184;874628;-54
2022/09/02 07:48:34;;;;;;;8.23;4.87;;;;;;;;;;753329;184;920100;-55
2022/09/02 07:51:00;;;;;;;9.90;5.30;;;;;;;;;;757808;184;920573;-54
2022/09/02 07:53:26;;;;;;;16.70;4.30;;;;;;;;;;754372;184;919997;-54
2022/09/02 07:55:51;;;;;;;5.73;3.87;;;;;;;;;;753962;184;918320;-55
2022/09/02 07:58:18;;;;;;;7.07;3.90;;;;;;;;;;760913;184;917524;-54
2022/09/02 08:00:43;;;;;;;6.20;4.00;;;;;;;;;;752233;184;817371;-54
2022/09/02 08:03:09;;;;;;;5.17;3.40;;;;;;;;;;756103;182;917470;-54
2022/09/02 08:05:35;;;;;;;8.67;4.60;;;;;;;;;;760823;184;813461;-54
2022/09/02 08:08:01;;;;;;;6.13;3.97;;;;;;;;;;750733;181;921301;-54
2022/09/02 08:10:27;;;;;;;6.37;4.60;;;;;;;;;;756240;184;876147;-54
2022/09/02 08:12:52;;;;;;;5.50;3.60;;;;;;;;;;750569;185;917808;-55
2022/09/02 08:15:19;;;;;;;5.80;3.40;;;;;;;;;;752608;185;919525;-55
2022/09/02 08:17:45;;;;;;;5.03;3.50;;;;;;;;;;751457;184;911053;-55
2022/09/02 08:20:11;;;;;;;6.50;3.80;;;;;;;;;;756117;184;917167;-55
2022/09/02 08:22:37;;;;;;;7.20;3.50;;;;;;;;;;755603;185;883809;-56
2022/09/02 08:25:03;;;;;;;5.67;3.53;;;;;;;;;;755473;184;917407;-54
2022/09/02 08:27:29;;;;;;;8.27;3.70;;;;;;;;;;750987;183;919017;-55
2022/09/02 08:29:54;;;;;;;7.67;4.57;;;;;;;;;;758905;184;919677;-55
2022/09/02 08:32:20;;;;;;;9.00;4.53;;;;;;;;;;753899;184;917863;-54
2022/09/02 08:34:46;;;;;;;6.00;3.70;;;;;;;;;;753209;184;919600;-54
2022/09/02 08:37:12;;;;;;;5.70;3.60;;;;;;;;;;756537;184;918734;-56
2022/09/02 08:39:38;;;;;;;5.00;3.40;;;;;;;;;;756483;184;921419;-54
2022/09/02 08:42:07;;;;;;;10.20;3.50;;;;;;;;;;751383;185;816579;-55
2022/09/02 08:44:33;;;;;;;5.33;3.17;;;;;;;;;;755720;184;817009;-55
2022/09/02 08:46:59;;;;;;;5.40;3.93;;;;;;;;;;754168;184;915916;-55
2022/09/02 08:49:25;;;;;;;7.33;3.50;;;;;;;;;;750814;183;821858;-55
2022/09/02 08:51:51;;;;;;;6.13;3.30;;;;;;;;;;755442;184;919999;-54
2022/09/02 08:54:26;;;;;;;5.30;2.80;;;;;;;;;;753233;184;817280;-56
2022/09/02 08:56:52;;;;;;;10.03;3.30;;;;;;;;;;746720;186;918996;-55
2022/09/02 08:59:19;;;;;;;5.37;3.27;;;;;;;;;;751497;185;816899;-55
2022/09/02 09:01:45;;;;;;;11.90;3.23;;;;;;;;;;748602;186;919578;-55
2022/09/02 09:04:10;;;;;;;8.57;3.30;;;;;;;;;;752919;186;920569;-55
2022/09/02 09:06:52;;;;;;;9.60;2.80;;;;;;;;;;739474;187;919523;-55
2022/09/02 09:09:17;;;;;;;13.80;3.50;;;;;;;;;;751332;185;917223;-54
2022/09/02 09:11:47;;;;;;;10.15;3.78;;;;;;;;;;754607;184;1007981;-55
2022/09/02 09:14:29;;;;;;;5.20;2.67;;;;;;;;;;746559;184;914691;-54
2022/09/02 09:16:55;;;;;;;7.80;2.90;;;;;;;;;;752108;185;921207;-54
2022/09/02 09:19:22;;;;;;;3.90;2.37;;;;;;;;;;753722;185;919415;-55
2022/09/02 09:21:48;;;;;;;4.90;2.63;;;;;;;;;;753219;185;919297;-54
2022/09/02 09:24:15;;;;;;;5.70;2.43;;;;;;;;;;755147;183;919457;-55
2022/09/02 09:26:41;;;;;;;3.57;2.63;;;;;;;;;;759758;184;881617;-54
2022/09/02 09:29:07;;;;;;;10.95;3.10;;;;;;;;;;753595;184;919657;-54
2022/09/02 09:31:34;;;;;;;10.23;2.37;;;;;;;;;;757106;184;616608;-54
2022/09/02 09:34:01;;;;;;;6.37;2.83;;;;;;;;;;759920;184;816407;-56
2022/09/02 09:36:33;;;;;;;6.30;2.80;;;;;;;;;;756571;185;919605;-54
2022/09/02 09:38:58;;;;;;;4.90;2.93;;;;;;;;;;752277;185;919995;-55
2022/09/02 09:41:24;;;;;;;6.27;2.63;;;;;;;;;;750048;185;816283;-55
2022/09/02 09:43:50;;;;;;;7.90;3.10;;;;;;;;;;759274;184;921059;-54
2022/09/02 09:46:27;;;;;;;4.80;3.00;;;;;;;;;;755459;184;921739;-54
2022/09/02 09:48:54;;;;;;;6.87;2.60;;;;;;;;;;756966;184;919086;-55
2022/09/02 09:51:21;;;;;;;4.87;2.50;;;;;;;;;;755784;185;819414;-55
2022/09/02 09:53:47;;;;;;;4.30;2.80;;;;;;;;;;757473;184;919940;-54
2022/09/02 09:56:27;;;;;;;9.77;3.35;;;;;;;;;;754525;182;917903;-55
2022/09/02 09:58:53;;;;;;;4.87;3.10;;;;;;;;;;755473;184;904549;-55
2022/09/02 10:01:21;;;;;;;6.17;3.00;;;;;;;;;;753531;184;817911;-54
2022/09/02 10:03:48;;;;;;;6.77;3.10;;;;;;;;;;754365;184;875156;-54
2022/09/02 10:06:16;;;;;;;5.77;3.27;;;;;;;;;;758496;184;818198;-54
2022/09/02 10:08:48;;;;;;;6.10;2.90;;;;;;;;;;751757;184;918664;-54
2022/09/02 10:11:19;;;;;;;11.10;3.80;;;;;;;;;;755815;182;818540;-54
2022/09/02 10:13:45;;;;;;;7.90;3.30;;;;;;;;;;752901;182;916016;-55
2022/09/02 10:16:30;;;;;;;5.67;3.50;;;;;;;;;;762290;184;918673;-54
2022/09/02 10:19:00;;;;;;;5.67;2.43;;;;;;;;;;756367;184;856960;-55
2022/09/02 10:21:38;;;;;;;9.43;3.37;;;;;;;;;;749202;185;920616;-55
2022/09/02 10:24:04;;;;;;;4.30;2.90;;;;;;;;;;750556;184;918757;-55
2022/09/02 10:26:36;;;;;;;5.70;2.77;;;;;;;;;;748226;185;821578;-55
2022/09/02 10:29:01;;;;;;;6.97;3.30;;;;;;;;;;746223;185;919495;-55
2022/09/02 10:31:48;;;;;;;4.83;2.83;;;;;;;;;;757594;185;918424;-55
2022/09/02 10:34:16;;;;;;;4.80;2.43;;;;;;;;;;757196;185;919084;-54
2022/09/02 10:36:45;;;;;;;5.17;2.60;;;;;;;;;;751077;185;919754;-55
2022/09/02 10:39:14;;;;;;;7.05;2.87;;;;;;;;;;755015;185;915617;-55
2022/09/02 10:41:44;;;;;;;7.23;2.77;;;;;;;;;;749647;182;915209;-55
2022/09/02 10:44:13;;;;;;;4.13;2.30;;;;;;;;;;758478;182;912676;-55
2022/09/02 10:46:39;;;;;;;5.40;2.45;;;;;;;;;;751274;185;922624;-55
2022/09/02 10:49:12;;;;;;;5.53;2.60;;;;;;;;;;752550;185;920286;-55
2022/09/02 10:51:55;;;;;;;4.13;2.10;;;;;;;;;;752528;183;919693;-56
2022/09/02 10:54:36;;;;;;;8.27;2.33;;;;;;;;;;749221;185;918988;-55
2022/09/02 10:57:02;;;;;;;3.27;1.97;;;;;;;;;;753074;184;920001;-54
2022/09/02 10:59:28;;;;;;;6.53;2.03;;;;;;;;;;752360;185;818594;-54
2022/09/02 11:01:54;;;;;;;6.20;1.67;;;;;;;;;;757054;184;819054;-54
2022/09/02 11:04:21;;;;;;;3.80;1.73;;;;;;;;;;749672;185;918208;-55
2022/09/02 11:06:47;;;;;;;3.37;1.73;;;;;;;;;;763129;184;613419;-55
2022/09/02 11:09:13;;;;;;;3.67;1.80;;;;;;;;;;749905;184;933356;-54
2022/09/02 11:11:39;;;;;;;2.90;1.43;;;;;;;;;;754271;184;916847;-54
2022/09/02 11:14:08;;;;;;;3.78;1.40;;;;;;;;;;749633;184;780941;-55
2022/09/02 11:16:35;;;;;;;8.80;1.80;;;;;;;;;;746622;185;918273;-55
2022/09/02 11:19:00;;;;;;;2.80;1.53;;;;;;;;;;749966;184;915689;-55
2022/09/02 11:21:26;;;;;;;4.30;1.60;;;;;;;;;;756085;184;756343;-55
2022/09/02 11:23:52;;;;;;;3.27;1.50;;;;;;;;;;754868;184;923095;-55
2022/09/02 11:26:19;;;;;;;4.20;1.70;;;;;;;;;;752373;180;917197;-55
2022/09/02 11:29:03;;;;;;;6.60;1.87;;;;;;;;;;751971;184;920721;-55
2022/09/02 11:31:29;;;;;;;2.40;1.37;;;;;;;;;;756476;183;818689;-55
2022/09/02 11:33:58;;;;;;;5.93;1.90;;;;;;;;;;755372;184;819242;-56
2022/09/02 11:36:25;;;;;;;5.90;1.70;;;;;;;;;;756235;184;917907;-55
2022/09/02 11:38:51;;;;;;;4.90;1.50;;;;;;;;;;756258;184;820667;-55
2022/09/02 11:41:19;;;;;;;5.90;1.67;;;;;;;;;;749641;185;829698;-54
2022/09/02 11:43:45;;;;;;;3.60;2.00;;;;;;;;;;755475;185;821214;-55
2022/09/02 11:46:32;;;;;;;4.67;2.40;;;;;;;;;;757334;184;939458;-56
2022/09/02 11:49:05;;;;;;;4.23;1.90;;;;;;;;;;759504;184;852800;-56
2022/09/02 11:51:43;;;;;;;3.60;1.73;;;;;;;;;;748293;185;877156;-54
2022/09/02 11:54:09;;;;;;;3.60;1.80;;;;;;;;;;756564;184;850685;-54
2022/09/02 11:56:36;;;;;;;3.50;1.33;;;;;;;;;;752600;184;915246;-55
2022/09/02 11:59:02;;;;;;;3.63;2.10;;;;;;;;;;755840;184;918823;-55
2022/09/02 12:01:28;;;;;;;6.70;1.47;;;;;;;;;;753786;184;919826;-55
2022/09/02 12:03:57;;;;;;;7.13;2.20;;;;;;;;;;755435;184;824844;-55
2022/09/02 12:06:23;;;;;;;6.50;1.60;;;;;;;;;;753747;182;919839;-54
2022/09/02 12:08:57;;;;;;;6.00;1.73;;;;;;;;;;755198;185;908259;-55
2022/09/02 12:11:28;;;;;;;3.87;1.90;;;;;;;;;;750180;185;921356;-55
2022/09/02 12:13:55;;;;;;;4.93;1.40;;;;;;;;;;754896;184;922645;-55
2022/09/02 12:16:36;;;;;;;4.73;1.83;;;;;;;;;;752283;185;819237;-55
2022/09/02 12:19:17;;;;;;;3.77;1.53;;;;;;;;;;748320;182;915188;-56
2022/09/02 12:22:00;;;;;;;3.47;1.67;;;;;;;;;;748876;182;920151;-55
2022/09/02 12:24:24;;;;;;;4.30;1.80;;;;;;;;;;747584;185;919548;-56
2022/09/02 12:27:05;;;;;;;3.20;1.60;;;;;;;;;;752913;185;797382;-54
2022/09/02 12:29:31;;;;;;;4.67;1.77;;;;;;;;;;757853;185;816485;-55
2022/09/02 12:31:56;;;;;;;3.00;1.80;;;;;;;;;;753673;184;918304;-55
2022/09/02 12:34:37;;;;;;;4.93;1.40;;;;;;;;;;750571;184;826374;-57
2022/09/02 12:37:03;;;;;;;2.13;1.23;;;;;;;;;;754053;184;816280;-56
2022/09/02 12:39:45;;;;;;;3.27;1.90;;;;;;;;;;758689;184;920932;-55
2022/09/02 12:42:16;;;;;;;3.33;1.50;;;;;;;;;;762042;184;816973;-56
2022/09/02 12:44:47;;;;;;;2.97;1.53;;;;;;;;;;755593;184;890637;-55
2022/09/02 12:47:33;;;;;;;4.03;1.67;;;;;;;;;;750794;180;919673;-55
2022/09/02 12:50:02;;;;;;;3.15;1.73;;;;;;;;;;750565;184;938364;-55
2022/09/02 12:52:38;;;;;;;3.30;1.93;;;;;;;;;;753611;183;919960;-55
2022/09/02 12:55:04;;;;;;;3.37;1.60;;;;;;;;;;748343;185;919371;-57
2022/09/02 12:57:36;;;;;;;2.97;1.50;;;;;;;;;;759180;184;913954;-54
2022/09/02 13:00:02;;;;;;;2.80;1.70;;;;;;;;;;749379;185;920079;-56
2022/09/02 13:02:30;;;;;;;2.90;1.63;;;;;;;;;;756770;182;916730;-55
2022/09/02 13:04:58;;;;;;;3.23;1.80;;;;;;;;;;748243;185;919781;-56
2022/09/02 13:07:23;;;;;;;3.17;1.80;;;;;;;;;;742136;185;919566;-55
2022/09/02 13:10:07;;;;;;;2.70;1.40;;;;;;;;;;748414;185;919976;-55
2022/09/02 13:12:49;;;;;;;5.80;2.30;;;;;;;;;;749796;182;919668;-55
2022/09/02 13:15:22;;;;;;;5.73;1.67;;;;;;;;;;748410;184;919595;-55
2022/09/02 13:17:54;;;;;;;4.37;1.70;;;;;;;;;;753273;182;819104;-55
2022/09/02 13:20:23;;;;;;;2.80;1.40;;;;;;;;;;753038;182;919721;-56
2022/09/02 13:23:07;;;;;;;4.33;1.93;;;;;;;;;;757808;183;921586;-55
2022/09/02 13:25:35;;;;;;;2.87;1.60;;;;;;;;;;759600;184;835215;-55
2022/09/02 13:28:06;;;;;;;4.20;1.77;;;;;;;;;;755549;184;917751;-55
2022/09/02 13:30:53;;;;;;;4.67;1.70;;;;;;;;;;754669;184;918604;-55
2022/09/02 13:33:19;;;;;;;6.70;1.93;;;;;;;;;;750532;184;827759;-55
2022/09/02 13:35:45;;;;;;;3.93;1.87;;;;;;;;;;755687;181;917543;-56
2022/09/02 13:38:10;;;;;;;7.10;2.10;;;;;;;;;;754249;184;817492;-54
2022/09/02 13:40:36;;;;;;;6.93;1.80;;;;;;;;;;749959;183;918808;-55
2022/09/02 13:43:03;;;;;;;3.07;1.40;;;;;;;;;;756301;182;815867;-55
2022/09/02 13:45:29;;;;;;;3.43;1.30;;;;;;;;;;754359;184;919580;-55
2022/09/02 13:47:56;;;;;;;2.80;1.63;;;;;;;;;;761274;180;902685;-55
2022/09/02 13:50:24;;;;;;;3.17;1.60;;;;;;;;;;755574;181;917752;-55
2022/09/02 13:52:50;;;;;;;2.83;1.43;;;;;;;;;;754695;184;922882;-56
2022/09/02 13:55:16;;;;;;;3.00;1.57;;;;;;;;;;757059;184;920302;-55
2022/09/02 13:57:43;;;;;;;4.40;1.60;;;;;;;;;;754126;184;917056;-55
2022/09/02 14:00:10;;;;;;;5.77;1.90;;;;;;;;;;755652;184;812287;-56
2022/09/02 14:02:35;;;;;;;4.00;1.60;;;;;;;;;;752585;185;923232;-57
2022/09/02 14:05:03;;;;;;;9.73;2.10;;;;;;;;;;750215;185;820594;-55
2022/09/02 14:07:30;;;;;;;3.20;1.40;;;;;;;;;;754703;184;917604;-55
2022/09/02 14:09:57;;;;;;;3.70;1.80;;;;;;;;;;756380;184;818899;-56
2022/09/02 14:12:22;;;;;;;2.60;1.33;;;;;;;;;;754002;185;818465;-55
2022/09/02 14:14:48;;;;;;;4.40;1.57;;;;;;;;;;751441;185;886521;-55
2022/09/02 14:17:17;;;;;;;5.77;1.93;;;;;;;;;;748987;184;919290;-55
2022/09/02 14:19:42;;;;;;;10.80;2.17;;;;;;;;;;758879;184;918725;-56
2022/09/02 14:22:08;;;;;;;3.87;1.50;;;;;;;;;;754159;184;915389;-56
2022/09/02 14:24:37;;;;;;;5.10;1.60;;;;;;;;;;755768;184;629532;-55